Terminal Aerodrome Forecast
Issued by NWS Sterling, VA

Current Version | Previous Version | Text Only | Print | Product List | Glossary Off
Versions: 1 2 3 4 5 6 7 8 9 10 11 12 13 14 15 16 17 18 19 20 21 22 23 24

973
FTUS41 KLWX 260531
TAFIAD
TAF
KIAD 260531Z 2606/2712 35007KT 3SM BR BKN005 OVC010
     FM261500 33006KT P6SM BKN015
     FM261800 33005KT P6SM SCT035
     FM262300 16004KT P6SM SCT250
     FM270300 15004KT 6SM BR FEW040
     FM270900 15004KT 3SM BR SCT250=

USA.gov is the U.S. government's official web portal to all federal, state and local government web resources and services.